Decoded Metar for OAIX ( in ) (IATA:) | Meteo·Mobile Aviation Weather
aviador You're here:

OAIX Decoded Metar

in
Report Time2019-02-16 17:57:00
UTC Time2019-02-16 18:19:42
Flight Rules vfr VFR
WindCalm
Visibility9999 m
Phenomena:N/A
Clouds:Overcast 100 Hf
Expected CloudBase > 1,600 ft AGL from Temp-Dew spread
Ceiling10,000 ft
Temp03°C
Dew Point-1°C (75% RH)
AAT0.9°C
QNH1022 hPa
Raw Report
METAR OAIX 161757Z 00000KT 9999 OVC100 03/M01 A3017 RMK AO2A SLP185
T00271013 10091 20020 58007 $=

Extra information for OAIX:More info

Social comments